Time;durP1;ratioP1;P1;durP2;ratioP2;P2;SDS_P1;SDS_P2;PMS_P1;PMS_P2;Temp;Humidity;BMP_temperature;BMP_pressure;BME280_temperature;BME280_humidity;BME280_pressure;Samples;Min_cycle;Max_cycle;Signal;HPM_P1;HPM_P2
2021/06/03 04:02:38;;;;;;;8.57;7.77;;;18.10;99.90;;;;;;4956041;29;20498;-67
2021/06/03 04:05:06;;;;;;;9.33;8.40;;;18.20;99.90;;;;;;4956974;28;20451;-67
2021/06/03 04:07:32;;;;;;;10.60;8.17;;;18.30;99.90;;;;;;4956564;28;20467;-67
2021/06/03 04:09:59;;;;;;;8.20;7.43;;;18.30;99.90;;;;;;4957844;28;20498;-68
2021/06/03 04:12:25;;;;;;;8.63;7.70;;;18.40;99.90;;;;;;4956402;28;21052;-67
2021/06/03 04:14:51;;;;;;;8.80;8.00;;;18.50;99.90;;;;;;4956561;28;20483;-67
2021/06/03 04:17:17;;;;;;;8.00;7.30;;;18.50;99.90;;;;;;4956855;28;20475;-66
2021/06/03 04:19:45;;;;;;;9.00;8.20;;;18.60;99.90;;;;;;4957863;28;20467;-66
2021/06/03 04:22:11;;;;;;;7.53;6.90;;;18.60;99.90;;;;;;4956572;28;20534;-67
2021/06/03 04:24:37;;;;;;;7.37;6.67;;;18.70;99.90;;;;;;4956150;28;20821;-66
2021/06/03 04:27:04;;;;;;;8.70;7.90;;;18.80;99.90;;;;;;4956849;28;20467;-66
2021/06/03 04:29:31;;;;;;;8.77;7.87;;;18.80;99.90;;;;;;4957279;28;20510;-66
2021/06/03 04:31:57;;;;;;;9.10;6.93;;;18.80;99.90;;;;;;4956709;28;20481;-67
2021/06/03 04:34:23;;;;;;;7.20;6.45;;;18.80;99.90;;;;;;4955887;28;20464;-66
2021/06/03 04:36:51;;;;;;;8.10;7.50;;;18.90;99.90;;;;;;4956360;28;20195;-66
2021/06/03 04:39:17;;;;;;;7.87;7.20;;;18.90;99.90;;;;;;4956481;28;20456;-67
2021/06/03 04:41:43;;;;;;;7.50;6.80;;;18.90;99.90;;;;;;4956247;28;20479;-65
2021/06/03 04:44:09;;;;;;;7.80;7.10;;;18.90;99.90;;;;;;4956408;28;20518;-66
2021/06/03 04:46:35;;;;;;;7.83;7.23;;;18.90;99.90;;;;;;4956171;28;20455;-67
2021/06/03 04:49:02;;;;;;;7.03;6.53;;;18.90;99.90;;;;;;4956272;28;20837;-66
2021/06/03 04:51:28;;;;;;;7.50;6.80;;;18.90;99.90;;;;;;4956210;28;20591;-67
2021/06/03 04:53:55;;;;;;;7.40;6.67;;;18.90;99.90;;;;;;4956259;28;20463;-66
2021/06/03 04:56:22;;;;;;;8.50;6.60;;;18.90;99.90;;;;;;4956572;28;20479;-65
2021/06/03 04:58:48;;;;;;;7.23;6.63;;;18.90;99.90;;;;;;4955974;28;20973;-65
2021/06/03 05:01:14;;;;;;;7.77;6.10;;;18.80;99.90;;;;;;4955978;28;20487;-66
2021/06/03 05:03:40;;;;;;;6.93;6.33;;;18.80;99.90;;;;;;4955943;28;20459;-66
2021/06/03 05:06:07;;;;;;;6.43;5.90;;;18.80;99.90;;;;;;4956225;28;20452;-65
2021/06/03 05:08:33;;;;;;;7.13;6.47;;;19.00;99.90;;;;;;4956290;28;20459;-66
2021/06/03 05:11:00;;;;;;;7.73;6.47;;;18.90;99.90;;;;;;4956185;28;20490;-66
2021/06/03 05:13:27;;;;;;;7.20;6.60;;;18.90;99.90;;;;;;4956539;28;20459;-66
2021/06/03 05:15:53;;;;;;;11.13;7.10;;;19.00;99.90;;;;;;4955657;29;20537;-66
2021/06/03 05:18:19;;;;;;;8.07;7.37;;;19.00;99.90;;;;;;4955555;28;20821;-66
2021/06/03 05:20:46;;;;;;;7.73;7.23;;;19.00;99.90;;;;;;4956261;28;20538;-66
2021/06/03 05:23:13;;;;;;;8.20;7.40;;;18.90;99.90;;;;;;4956021;28;20459;-65
2021/06/03 05:25:39;;;;;;;8.40;7.60;;;19.00;99.90;;;;;;4955789;28;20478;-65
2021/06/03 05:28:07;;;;;;;8.50;7.80;;;19.10;99.90;;;;;;4955696;28;20459;-65
2021/06/03 05:30:34;;;;;;;7.70;7.10;;;19.10;99.90;;;;;;4955386;28;20981;-65
2021/06/03 05:33:00;;;;;;;8.07;7.27;;;19.20;99.90;;;;;;4955729;28;20459;-65
2021/06/03 05:35:26;;;;;;;7.70;7.03;;;19.10;99.90;;;;;;4955563;28;20888;-66
2021/06/03 05:37:53;;;;;;;8.70;7.97;;;19.20;99.90;;;;;;4955696;28;20459;-65
2021/06/03 05:40:21;;;;;;;9.60;7.70;;;19.00;99.90;;;;;;4955710;28;20464;-66
2021/06/03 05:42:51;;;;;;;8.20;7.50;;;19.20;99.90;;;;;;4955567;28;20495;-65
2021/06/03 05:45:20;;;;;;;8.23;7.63;;;19.20;99.90;;;;;;4955738;28;20938;-67
2021/06/03 05:47:46;;;;;;;7.80;7.10;;;19.20;99.90;;;;;;4955526;28;20487;-66
2021/06/03 05:50:16;;;;;;;7.67;7.07;;;19.40;99.90;;;;;;4956049;28;20444;-65
2021/06/03 05:52:43;;;;;;;8.63;7.83;;;19.40;99.90;;;;;;4956122;28;20463;-66
2021/06/03 05:55:11;;;;;;;7.80;7.10;;;19.50;99.90;;;;;;4956077;28;20503;-66
2021/06/03 05:57:38;;;;;;;9.90;8.57;;;19.60;99.90;;;;;;4955722;28;20459;-66
2021/06/03 06:00:06;;;;;;;7.90;7.30;;;19.70;99.90;;;;;;4960870;28;20460;-66
2021/06/03 06:02:44;;;;;;;9.33;8.43;;;19.90;99.90;;;;;;4956120;28;20488;-65
2021/06/03 06:07:56;;;;;;;8.40;7.80;;;20.20;99.90;;;;;;4955255;29;20427;-66
2021/06/03 06:10:22;;;;;;;8.20;7.40;;;20.40;99.90;;;;;;4955623;28;20464;-63
2021/06/03 06:12:48;;;;;;;7.27;6.83;;;20.60;99.90;;;;;;4956338;28;20456;-63
2021/06/03 06:15:15;;;;;;;7.63;6.90;;;20.80;99.90;;;;;;4956767;28;20483;-64
2021/06/03 06:17:43;;;;;;;7.07;6.47;;;21.20;99.90;;;;;;4959060;28;20455;-62
2021/06/03 06:20:11;;;;;;;9.00;6.97;;;21.40;99.90;;;;;;4959234;28;20496;-62
2021/06/03 06:22:37;;;;;;;7.73;7.00;;;21.80;99.90;;;;;;4958924;28;20455;-63
2021/06/03 06:25:05;;;;;;;7.50;6.90;;;22.00;99.90;;;;;;4958723;28;20954;-63
2021/06/03 06:27:31;;;;;;;7.97;7.17;;;22.10;99.90;;;;;;4958810;28;20880;-63
2021/06/03 06:29:58;;;;;;;7.03;6.53;;;22.20;99.90;;;;;;4958481;28;20456;-64
2021/06/03 06:32:24;;;;;;;8.63;8.00;;;22.10;99.90;;;;;;4958811;28;20472;-64
2021/06/03 06:34:51;;;;;;;7.87;7.20;;;22.40;99.90;;;;;;4958434;28;20476;-63
2021/06/03 06:37:18;;;;;;;7.10;6.50;;;22.60;99.90;;;;;;4958771;28;20471;-62
2021/06/03 06:39:44;;;;;;;7.50;6.70;;;22.70;99.90;;;;;;4958929;28;20459;-63
2021/06/03 06:42:10;;;;;;;6.93;6.30;;;22.90;99.90;;;;;;4958254;28;20847;-63
2021/06/03 06:44:36;;;;;;;6.87;6.37;;;23.00;99.90;;;;;;4958931;28;20443;-63
2021/06/03 06:47:03;;;;;;;8.93;6.77;;;23.10;99.90;;;;;;4959485;28;20459;-63
2021/06/03 06:49:29;;;;;;;7.87;7.07;;;23.10;99.90;;;;;;4958202;28;20455;-63
2021/06/03 06:51:57;;;;;;;7.57;6.97;;;23.00;99.90;;;;;;4958238;28;20534;-63
2021/06/03 06:54:23;;;;;;;8.23;7.50;;;23.10;99.90;;;;;;4958965;28;20498;-63
2021/06/03 06:56:49;;;;;;;7.87;6.43;;;23.10;99.90;;;;;;4958045;28;20962;-63
2021/06/03 06:59:16;;;;;;;6.77;6.27;;;23.20;99.90;;;;;;4958069;28;20460;-63
2021/06/03 07:01:42;;;;;;;7.00;6.40;;;23.30;99.90;;;;;;4958406;28;20506;-64
2021/06/03 07:04:08;;;;;;;7.50;6.80;;;23.40;99.90;;;;;;4958710;28;20451;-63
2021/06/03 07:06:34;;;;;;;8.30;7.60;;;23.40;99.90;;;;;;4958059;28;20606;-64
2021/06/03 07:09:03;;;;;;;7.60;7.00;;;23.60;99.90;;;;;;4958167;28;21029;-63
2021/06/03 07:11:29;;;;;;;7.00;6.30;;;23.70;99.90;;;;;;4958130;28;20475;-62
2021/06/03 07:13:55;;;;;;;10.10;5.90;;;23.90;99.90;;;;;;4958224;28;20511;-62
2021/06/03 07:16:22;;;;;;;7.00;6.43;;;24.30;99.90;;;;;;4957934;28;20838;-63
2021/06/03 07:18:48;;;;;;;6.90;6.33;;;24.40;99.90;;;;;;4958758;28;20452;-62
2021/06/03 07:21:14;;;;;;;6.97;6.33;;;24.50;99.90;;;;;;4958430;28;20483;-63
2021/06/03 07:23:41;;;;;;;7.23;6.20;;;24.40;99.90;;;;;;4958663;28;20459;-63
2021/06/03 07:26:08;;;;;;;5.43;5.03;;;24.40;99.90;;;;;;4960687;28;20455;-62
2021/06/03 07:28:35;;;;;;;6.37;5.90;;;24.40;99.90;;;;;;4958322;28;20455;-62
2021/06/03 07:31:01;;;;;;;8.10;6.30;;;24.40;99.90;;;;;;4957812;28;20502;-61
2021/06/03 07:33:27;;;;;;;7.53;5.53;;;24.30;99.90;;;;;;4958530;28;20939;-63
2021/06/03 07:35:53;;;;;;;6.00;5.50;;;24.50;99.90;;;;;;4959134;28;20479;-64
2021/06/03 07:38:20;;;;;;;6.20;5.60;;;24.40;99.90;;;;;;4959322;28;20444;-63
2021/06/03 07:40:46;;;;;;;6.20;5.70;;;24.20;99.90;;;;;;4958854;28;20475;-63
2021/06/03 07:43:14;;;;;;;6.80;6.23;;;24.30;99.90;;;;;;4957842;28;20969;-64
2021/06/03 07:45:41;;;;;;;6.53;5.53;;;24.20;99.90;;;;;;4957476;28;20435;-63
2021/06/03 07:48:09;;;;;;;5.97;5.57;;;24.10;99.90;;;;;;4957771;28;20444;-64
2021/06/03 07:50:36;;;;;;;5.60;5.10;;;24.20;99.90;;;;;;4958052;28;20479;-62
2021/06/03 07:53:04;;;;;;;6.97;6.37;;;24.20;99.90;;;;;;4957251;28;20459;-64
2021/06/03 07:55:31;;;;;;;8.40;5.50;;;24.30;99.90;;;;;;4957281;28;20490;-63
2021/06/03 07:57:59;;;;;;;5.93;5.53;;;24.30;99.90;;;;;;4957573;28;20476;-63
2021/06/03 08:00:28;;;;;;;6.43;5.70;;;24.20;99.90;;;;;;4956830;28;20973;-64
2021/06/03 08:02:54;;;;;;;6.13;5.73;;;24.20;99.90;;;;;;4956965;28;20440;-65
2021/06/03 08:05:22;;;;;;;5.20;4.80;;;24.20;99.90;;;;;;4956992;28;20443;-65
2021/06/03 08:07:49;;;;;;;6.43;5.93;;;24.20;99.90;;;;;;4956989;28;20467;-65
2021/06/03 08:10:20;;;;;;;6.53;5.77;;;24.10;99.90;;;;;;4956838;28;20455;-65
2021/06/03 08:12:46;;;;;;;9.43;6.07;;;24.20;99.90;;;;;;4956754;28;20444;-64
2021/06/03 08:15:14;;;;;;;6.20;5.70;;;24.30;99.90;;;;;;4956826;28;20479;-64
2021/06/03 08:17:42;;;;;;;6.70;5.97;;;24.40;99.90;;;;;;4957196;28;20483;-64
2021/06/03 08:20:11;;;;;;;5.70;5.30;;;24.70;99.90;;;;;;4958462;28;20459;-64
2021/06/03 08:22:37;;;;;;;8.13;6.30;;;24.90;99.90;;;;;;4956149;28;21013;-63
2021/06/03 08:25:05;;;;;;;7.20;6.70;;;25.30;99.90;;;;;;4956836;28;20451;-64
2021/06/03 08:27:31;;;;;;;7.00;6.50;;;25.70;99.90;;;;;;4956421;28;20459;-64
2021/06/03 08:29:57;;;;;;;6.43;5.57;;;26.30;99.90;;;;;;4956431;28;20943;-65
2021/06/03 08:32:24;;;;;;;6.27;5.77;;;27.00;99.90;;;;;;4956446;28;20479;-64
2021/06/03 08:34:51;;;;;;;6.13;5.63;;;27.70;99.60;;;;;;4956329;28;20482;-62
2021/06/03 08:37:17;;;;;;;6.17;5.67;;;28.00;99.30;;;;;;4956358;28;20456;-64
2021/06/03 08:39:44;;;;;;;7.20;5.27;;;28.00;98.20;;;;;;4955803;28;20455;-65
2021/06/03 08:42:13;;;;;;;5.43;5.13;;;28.30;96.00;;;;;;4956240;28;20480;-64
2021/06/03 08:44:39;;;;;;;6.33;5.00;;;28.40;96.20;;;;;;4956811;28;20455;-65
2021/06/03 08:47:08;;;;;;;5.10;4.70;;;28.30;96.70;;;;;;4956211;28;20955;-63
2021/06/03 08:49:34;;;;;;;4.80;4.43;;;28.60;96.30;;;;;;4956259;28;20558;-64
2021/06/03 08:52:03;;;;;;;4.87;4.50;;;28.90;94.40;;;;;;4955952;28;20538;-63
2021/06/03 08:54:32;;;;;;;4.83;4.63;;;29.00;93.10;;;;;;4955881;28;20962;-64
2021/06/03 08:56:58;;;;;;;4.10;3.80;;;29.30;95.30;;;;;;4957100;28;20455;-64
2021/06/03 08:59:24;;;;;;;6.03;4.90;;;29.80;92.60;;;;;;4956446;28;20459;-63
2021/06/03 09:01:51;;;;;;;4.70;4.40;;;30.10;90.80;;;;;;4956328;28;20505;-63
2021/06/03 09:04:17;;;;;;;4.53;4.13;;;30.20;90.20;;;;;;4955942;28;20462;-64
2021/06/03 09:06:43;;;;;;;5.00;4.60;;;30.20;89.50;;;;;;4956830;28;20454;-63
2021/06/03 09:09:12;;;;;;;4.50;4.10;;;30.70;89.70;;;;;;4956793;28;20514;-64
2021/06/03 09:11:39;;;;;;;3.90;3.60;;;31.60;90.10;;;;;;4956773;28;20554;-62
2021/06/03 09:14:07;;;;;;;3.20;3.00;;;32.20;80.10;;;;;;4956332;28;20459;-63
2021/06/03 09:16:35;;;;;;;4.30;3.97;;;32.90;75.80;;;;;;4956531;28;20489;-62
2021/06/03 09:19:06;;;;;;;3.33;3.13;;;33.50;74.80;;;;;;4956475;28;20440;-63
2021/06/03 09:21:35;;;;;;;3.17;3.03;;;33.40;75.60;;;;;;4955963;28;20479;-64
2021/06/03 09:24:03;;;;;;;4.10;3.70;;;34.30;73.20;;;;;;4956881;28;20501;-63
2021/06/03 09:26:34;;;;;;;3.77;3.47;;;34.80;69.70;;;;;;4956189;28;20534;-63
2021/06/03 09:29:02;;;;;;;4.93;2.90;;;34.90;68.80;;;;;;4956235;28;20477;-63
2021/06/03 09:31:31;;;;;;;3.60;3.40;;;34.90;68.40;;;;;;4956109;28;20850;-61
2021/06/03 09:34:03;;;;;;;3.27;3.10;;;35.20;63.10;;;;;;4956522;28;20455;-63
2021/06/03 09:36:39;;;;;;;4.43;2.93;;;35.20;66.10;;;;;;4955715;28;20506;-63
2021/06/03 09:39:19;;;;;;;3.70;3.40;;;35.20;65.20;;;;;;4955934;28;20546;-63
2021/06/03 09:41:49;;;;;;;5.17;2.93;;;35.60;63.00;;;;;;4956085;28;20533;-63
2021/06/03 09:44:19;;;;;;;4.60;3.30;;;36.00;62.40;;;;;;4956249;28;20515;-63
2021/06/03 09:46:48;;;;;;;3.00;2.87;;;36.20;58.60;;;;;;4956094;28;20447;-63
2021/06/03 09:49:20;;;;;;;3.97;3.57;;;35.50;60.00;;;;;;4956087;28;20515;-64
2021/06/03 09:51:48;;;;;;;4.33;3.10;;;36.00;62.80;;;;;;4959195;28;20474;-62
2021/06/03 09:54:19;;;;;;;3.00;2.70;;;36.30;58.50;;;;;;4959689;28;20455;-62
2021/06/03 09:56:50;;;;;;;3.63;3.40;;;36.10;58.60;;;;;;4959874;28;20487;-62
2021/06/03 09:59:22;;;;;;;3.03;2.87;;;36.10;63.10;;;;;;4959854;28;20443;-63
2021/06/03 10:02:00;;;;;;;2.90;2.70;;;36.70;57.10;;;;;;4959156;28;20482;-62
2021/06/03 10:04:32;;;;;;;3.53;3.20;;;37.00;57.10;;;;;;4959695;28;20442;-63
2021/06/03 10:07:01;;;;;;;3.20;3.00;;;37.20;56.60;;;;;;4959687;28;20435;-64
2021/06/03 10:09:43;;;;;;;3.07;2.87;;;37.10;56.50;;;;;;4959202;28;20961;-64
2021/06/03 10:12:12;;;;;;;2.80;2.60;;;37.00;57.20;;;;;;4960655;28;20475;-63
2021/06/03 10:14:39;;;;;;;5.30;3.30;;;37.10;57.40;;;;;;4959514;28;20831;-62
2021/06/03 10:17:17;;;;;;;3.57;3.27;;;37.40;57.50;;;;;;4959434;28;20455;-62
2021/06/03 10:19:46;;;;;;;2.70;2.60;;;37.40;55.30;;;;;;4959496;28;20455;-62
2021/06/03 10:22:20;;;;;;;4.10;3.80;;;36.70;55.80;;;;;;4959076;28;20586;-62
2021/06/03 10:25:05;;;;;;;3.87;3.67;;;35.70;58.70;;;;;;4959197;28;20439;-62
2021/06/03 10:27:35;;;;;;;3.37;3.17;;;34.60;61.30;;;;;;4959148;28;20459;-62
2021/06/03 10:30:06;;;;;;;3.33;3.03;;;34.70;60.30;;;;;;4960947;28;20458;-63
2021/06/03 10:32:32;;;;;;;2.90;2.70;;;34.60;59.20;;;;;;4962964;28;20474;-63
2021/06/03 10:35:00;;;;;;;4.07;2.87;;;35.40;59.30;;;;;;4961126;28;20486;-63
2021/06/03 10:37:27;;;;;;;3.63;3.33;;;35.20;57.60;;;;;;4962159;28;20465;-63
2021/06/03 10:39:55;;;;;;;3.70;3.40;;;35.60;55.80;;;;;;4960884;28;20462;-63
2021/06/03 10:42:23;;;;;;;3.73;2.63;;;35.80;57.30;;;;;;4959897;28;20474;-64
2021/06/03 10:44:51;;;;;;;3.27;3.10;;;35.80;57.30;;;;;;4959168;28;20454;-64
2021/06/03 10:47:18;;;;;;;3.93;2.97;;;35.30;56.80;;;;;;4959298;28;20462;-64
2021/06/03 10:49:45;;;;;;;3.47;3.17;;;35.30;56.30;;;;;;4959443;28;20942;-64
2021/06/03 10:52:15;;;;;;;3.07;2.87;;;36.00;56.10;;;;;;4958686;28;20486;-64
2021/06/03 10:54:47;;;;;;;3.40;3.10;;;35.90;56.10;;;;;;4958856;28;20451;-64
2021/06/03 10:57:15;;;;;;;2.50;2.40;;;35.40;57.30;;;;;;4958957;28;20447;-64
2021/06/03 10:59:42;;;;;;;4.53;2.70;;;35.70;57.20;;;;;;4958835;28;20461;-64
2021/06/03 11:02:10;;;;;;;3.13;2.83;;;35.30;55.90;;;;;;4957486;28;21064;-65
2021/06/03 11:04:38;;;;;;;2.97;2.70;;;34.70;58.20;;;;;;4958362;28;20486;-64
2021/06/03 11:07:06;;;;;;;4.10;3.13;;;34.40;56.30;;;;;;4959082;28;20929;-63
2021/06/03 11:09:34;;;;;;;3.30;3.10;;;34.20;56.90;;;;;;4958768;28;20526;-64
2021/06/03 11:12:09;;;;;;;2.60;2.50;;;34.00;56.70;;;;;;4959103;28;20479;-63
2021/06/03 11:15:10;;;;;;;3.17;2.87;;;33.60;58.40;;;;;;4958025;28;20871;-64
2021/06/03 11:17:58;;;;;;;3.30;3.10;;;33.90;59.90;;;;;;4958452;28;20932;-65
2021/06/03 11:20:40;;;;;;;3.80;3.43;;;34.40;59.60;;;;;;4958455;28;20455;-63
2021/06/03 11:23:56;;;;;;;3.27;3.07;;;34.40;59.70;;;;;;4959470;28;20450;-64
2021/06/03 11:26:55;;;;;;;2.73;2.50;;;34.30;60.20;;;;;;4958994;29;20470;-65
2021/06/03 11:29:25;;;;;;;3.00;2.80;;;34.30;59.40;;;;;;4899404;29;20487;-64
2021/06/03 11:32:12;;;;;;;3.17;2.83;;;34.10;58.70;;;;;;4900249;29;20565;-64
2021/06/03 11:34:45;;;;;;;2.97;2.77;;;34.00;57.50;;;;;;4935411;28;20451;-65
2021/06/03 11:37:14;;;;;;;3.20;2.90;;;33.30;58.60;;;;;;4958597;28;20454;-64
2021/06/03 11:39:44;;;;;;;3.07;2.87;;;33.10;61.60;;;;;;4958337;28;20517;-65
2021/06/03 11:42:35;;;;;;;5.83;4.50;;;32.90;60.00;;;;;;4957819;28;20475;-65
2021/06/03 11:45:27;;;;;;;5.80;2.90;;;32.20;62.20;;;;;;4958578;28;20494;-64
2021/06/03 11:48:09;;;;;;;9.30;3.17;;;31.30;69.40;;;;;;4958275;28;20447;-64
2021/06/03 11:51:00;;;;;;;3.87;3.57;;;30.30;71.60;;;;;;4957898;28;20436;-65
2021/06/03 11:53:28;;;;;;;5.97;4.90;;;29.70;74.60;;;;;;4964149;28;20864;-63
2021/06/03 11:55:57;;;;;;;4.20;3.77;;;29.20;76.70;;;;;;4961744;28;20480;-64
2021/06/03 11:58:29;;;;;;;4.60;4.30;;;28.80;78.80;;;;;;4957439;28;20459;-64
2021/06/03 12:00:58;;;;;;;5.90;5.00;;;28.40;79.80;;;;;;4957223;28;20483;-63
2021/06/03 12:03:37;;;;;;;4.43;4.03;;;28.10;80.30;;;;;;4957957;28;20448;-64
2021/06/03 12:06:07;;;;;;;4.93;3.87;;;27.80;83.80;;;;;;4958984;28;20440;-63
2021/06/03 12:08:41;;;;;;;3.90;3.03;;;27.70;86.20;;;;;;4957964;28;20444;-64
2021/06/03 12:11:10;;;;;;;3.90;3.10;;;27.60;87.00;;;;;;4957827;28;20966;-64
2021/06/03 12:13:37;;;;;;;3.77;3.47;;;27.50;87.80;;;;;;4956836;28;20950;-64
2021/06/03 12:16:04;;;;;;;3.57;3.27;;;27.40;88.50;;;;;;4957699;28;20550;-64
2021/06/03 12:18:36;;;;;;;3.63;2.83;;;27.40;89.60;;;;;;4957578;28;20460;-64
2021/06/03 12:21:05;;;;;;;3.03;2.17;;;27.40;87.90;;;;;;4957993;28;20496;-63
2021/06/03 12:23:32;;;;;;;2.70;2.53;;;27.30;85.60;;;;;;4958438;28;20440;-65
2021/06/03 12:25:59;;;;;;;2.43;2.23;;;27.50;86.20;;;;;;4958009;28;20981;-65
2021/06/03 12:28:33;;;;;;;2.50;2.10;;;27.50;87.30;;;;;;4957812;28;20456;-63
2021/06/03 12:31:01;;;;;;;2.40;2.30;;;27.90;89.60;;;;;;4958309;28;20486;-63
2021/06/03 12:33:29;;;;;;;2.50;2.40;;;28.60;90.00;;;;;;4956663;29;20440;-63
2021/06/03 12:35:58;;;;;;;5.00;3.13;;;29.10;87.30;;;;;;4957172;28;20477;-63
2021/06/03 12:38:31;;;;;;;3.10;2.70;;;29.20;86.70;;;;;;4957164;28;20446;-63
2021/06/03 12:41:00;;;;;;;4.00;3.27;;;29.30;88.80;;;;;;4963382;28;20479;-64
2021/06/03 12:43:33;;;;;;;2.90;2.70;;;29.40;85.90;;;;;;4973764;28;20460;-63
2021/06/03 12:46:00;;;;;;;2.57;2.37;;;29.30;85.10;;;;;;4958239;28;20444;-64
2021/06/03 12:48:30;;;;;;;2.60;2.40;;;29.00;87.20;;;;;;4957197;28;20567;-64
2021/06/03 12:50:56;;;;;;;2.87;2.67;;;29.10;86.20;;;;;;4956912;28;20475;-64
2021/06/03 12:53:23;;;;;;;2.70;2.50;;;29.10;82.50;;;;;;4956840;28;20821;-65
2021/06/03 12:55:51;;;;;;;3.77;3.07;;;29.00;84.40;;;;;;4956771;28;20475;-64
2021/06/03 12:58:20;;;;;;;2.40;2.27;;;28.90;83.60;;;;;;4956747;28;20954;-64
2021/06/03 13:00:47;;;;;;;2.30;1.93;;;29.00;81.70;;;;;;4956195;28;20998;-64
2021/06/03 13:03:16;;;;;;;3.00;2.80;;;29.10;77.90;;;;;;4956669;28;20506;-64
2021/06/03 13:05:43;;;;;;;2.70;2.50;;;29.00;85.20;;;;;;4956389;28;20452;-65
2021/06/03 13:08:10;;;;;;;2.50;2.30;;;29.10;79.80;;;;;;4956556;28;20455;-64
2021/06/03 13:10:36;;;;;;;2.13;2.03;;;29.20;76.40;;;;;;4956784;28;20471;-64
2021/06/03 13:13:05;;;;;;;3.00;2.80;;;29.40;71.00;;;;;;4956446;28;20813;-64
2021/06/03 13:15:34;;;;;;;2.70;2.50;;;29.60;80.20;;;;;;4956666;28;20522;-64
2021/06/03 13:18:04;;;;;;;2.57;2.37;;;30.00;73.80;;;;;;4956604;28;20574;-63
2021/06/03 13:20:33;;;;;;;2.40;2.20;;;29.80;75.10;;;;;;4956284;28;20498;-64
2021/06/03 13:23:02;;;;;;;2.80;2.60;;;29.00;76.40;;;;;;4956438;28;20448;-64
2021/06/03 13:25:31;;;;;;;2.90;2.70;;;29.20;78.60;;;;;;4956487;28;20489;-64
2021/06/03 13:27:58;;;;;;;2.77;2.60;;;29.20;79.00;;;;;;4956504;28;20448;-64
2021/06/03 13:30:29;;;;;;;3.33;2.20;;;29.10;78.90;;;;;;4955708;28;20505;-64
2021/06/03 13:33:06;;;;;;;3.00;2.80;;;29.10;79.60;;;;;;4955613;28;20949;-64
2021/06/03 13:35:33;;;;;;;2.70;2.57;;;28.80;76.20;;;;;;4955889;28;20471;-64
2021/06/03 13:38:02;;;;;;;3.00;2.90;;;28.40;77.80;;;;;;4956002;28;20509;-64
2021/06/03 13:40:29;;;;;;;2.63;2.50;;;28.30;79.50;;;;;;4956118;28;20486;-63
2021/06/03 13:42:59;;;;;;;3.07;2.87;;;28.20;79.50;;;;;;4955582;28;20584;-64
2021/06/03 13:45:28;;;;;;;2.70;2.50;;;28.20;81.50;;;;;;4955639;28;20448;-63
2021/06/03 13:47:55;;;;;;;4.10;3.13;;;28.10;82.90;;;;;;4955551;28;20458;-62
2021/06/03 13:50:26;;;;;;;2.70;2.60;;;28.10;85.60;;;;;;4955542;28;20950;-62
2021/06/03 13:52:54;;;;;;;3.60;3.30;;;27.80;83.70;;;;;;4955635;28;20444;-62
2021/06/03 13:55:23;;;;;;;2.30;2.20;;;27.50;84.50;;;;;;4955991;28;20460;-63
2021/06/03 13:57:50;;;;;;;2.50;2.30;;;27.30;81.20;;;;;;4955479;28;20863;-63
2021/06/03 14:00:30;;;;;;;2.30;2.20;;;27.30;82.00;;;;;;4955622;28;20459;-62
2021/06/03 14:03:14;;;;;;;3.20;3.00;;;27.00;79.70;;;;;;4956318;28;20443;-63
2021/06/03 14:05:56;;;;;;;3.53;3.33;;;26.90;88.80;;;;;;4955748;28;20432;-62
2021/06/03 14:08:24;;;;;;;3.97;3.67;;;26.50;91.90;;;;;;4955621;28;20491;-62
2021/06/03 14:11:38;;;;;;;3.70;3.40;;;26.10;93.50;;;;;;4955423;28;20481;-62
2021/06/03 14:14:11;;;;;;;3.77;3.47;;;25.60;97.50;;;;;;4955529;28;20487;-62
2021/06/03 14:16:49;;;;;;;3.57;3.23;;;25.50;99.90;;;;;;4959831;28;20459;-63
2021/06/03 14:19:18;;;;;;;3.47;3.17;;;25.50;97.80;;;;;;4961887;28;20516;-64
2021/06/03 14:21:52;;;;;;;3.70;3.50;;;25.50;98.00;;;;;;4955578;28;20483;-64
2021/06/03 14:24:30;;;;;;;3.37;3.17;;;25.40;98.90;;;;;;4955447;28;20444;-63
2021/06/03 14:27:07;;;;;;;3.77;3.40;;;25.20;99.70;;;;;;4955387;28;20439;-64
2021/06/03 14:29:45;;;;;;;3.70;3.50;;;25.20;99.90;;;;;;4955514;28;20522;-63
2021/06/03 14:32:14;;;;;;;3.47;3.27;;;25.10;99.90;;;;;;4955268;28;20562;-64
2021/06/03 14:34:41;;;;;;;3.23;3.03;;;25.20;99.90;;;;;;4955438;28;20459;-63
2021/06/03 14:37:10;;;;;;;3.93;3.53;;;25.10;99.90;;;;;;4955755;28;20491;-62
2021/06/03 14:39:44;;;;;;;3.70;3.40;;;25.30;99.90;;;;;;4958667;28;20455;-63
2021/06/03 14:42:22;;;;;;;3.77;3.47;;;25.50;99.90;;;;;;4958645;28;20481;-63
2021/06/03 14:44:49;;;;;;;3.20;3.00;;;25.70;99.30;;;;;;4958690;28;20444;-62
2021/06/03 14:47:17;;;;;;;5.47;3.20;;;26.10;99.90;;;;;;4958402;28;20824;-63
2021/06/03 14:49:43;;;;;;;4.30;3.30;;;26.10;98.50;;;;;;4958596;28;20451;-62
2021/06/03 14:52:09;;;;;;;3.80;3.43;;;26.30;97.40;;;;;;4958548;28;20834;-64
2021/06/03 14:54:36;;;;;;;4.10;3.80;;;26.60;96.90;;;;;;4958421;28;20511;-62
2021/06/03 14:57:02;;;;;;;4.47;3.40;;;26.80;95.00;;;;;;4958542;28;20480;-63
2021/06/03 14:59:28;;;;;;;4.27;3.97;;;27.20;95.70;;;;;;4958576;28;20459;-62
2021/06/03 15:01:54;;;;;;;4.03;3.83;;;27.70;92.50;;;;;;4958030;28;20487;-64
2021/06/03 15:04:22;;;;;;;3.03;2.83;;;28.10;91.10;;;;;;4958046;28;20943;-63
2021/06/03 15:06:48;;;;;;;2.70;2.60;;;28.20;89.30;;;;;;4958439;28;20455;-63
2021/06/03 15:09:14;;;;;;;2.47;2.37;;;28.40;88.80;;;;;;4958343;28;20459;-63
2021/06/03 15:11:40;;;;;;;3.53;2.20;;;28.50;88.90;;;;;;4958184;28;20869;-62
2021/06/03 15:14:06;;;;;;;2.43;2.30;;;28.70;87.70;;;;;;4958077;28;20467;-63
2021/06/03 15:16:33;;;;;;;2.10;2.00;;;28.70;82.90;;;;;;4957772;28;20483;-63
2021/06/03 15:18:59;;;;;;;2.83;1.80;;;28.30;79.90;;;;;;4957669;28;20463;-63
2021/06/03 15:21:26;;;;;;;2.40;2.30;;;28.20;81.20;;;;;;4957600;28;20483;-63
2021/06/03 15:23:53;;;;;;;2.80;2.60;;;28.20;82.30;;;;;;4957680;28;20464;-63
2021/06/03 15:26:19;;;;;;;2.27;2.17;;;28.20;83.90;;;;;;4957261;28;20869;-63
2021/06/03 15:28:45;;;;;;;2.33;2.20;;;28.20;80.90;;;;;;4957574;28;20460;-63
2021/06/03 15:31:11;;;;;;;2.30;2.10;;;28.00;81.10;;;;;;4957468;28;20475;-62
2021/06/03 15:33:38;;;;;;;2.50;2.30;;;28.00;82.30;;;;;;4957438;28;20819;-62
2021/06/03 15:36:05;;;;;;;2.50;2.40;;;28.10;82.70;;;;;;4969330;28;20479;-63
2021/06/03 15:38:33;;;;;;;2.30;2.20;;;28.10;82.70;;;;;;4971242;28;20456;-63
2021/06/03 15:40:59;;;;;;;3.30;2.53;;;27.90;84.20;;;;;;4971974;28;20522;-63
2021/06/03 15:43:25;;;;;;;2.40;2.20;;;28.00;84.80;;;;;;4965404;28;20463;-64
2021/06/03 15:45:53;;;;;;;2.83;2.57;;;27.90;84.00;;;;;;4957410;28;20828;-63
2021/06/03 15:48:19;;;;;;;2.30;2.20;;;27.70;83.00;;;;;;4957167;28;20455;-62
2021/06/03 15:50:47;;;;;;;2.70;2.40;;;27.80;83.70;;;;;;4957113;28;20510;-64
2021/06/03 15:53:18;;;;;;;2.30;2.20;;;27.80;84.10;;;;;;4957250;28;20553;-63
2021/06/03 15:55:46;;;;;;;2.00;1.90;;;27.60;81.80;;;;;;4958088;28;20503;-63
2021/06/03 15:58:12;;;;;;;2.40;2.30;;;27.70;81.30;;;;;;4959244;28;20491;-63
2021/06/03 16:00:39;;;;;;;2.40;2.17;;;27.70;83.10;;;;;;4960012;28;20546;-62
2021/06/03 16:03:06;;;;;;;2.27;2.10;;;27.80;83.30;;;;;;4959195;28;20451;-63
2021/06/03 16:05:32;;;;;;;1.90;1.80;;;27.80;80.20;;;;;;4959442;28;20467;-63
2021/06/03 16:08:01;;;;;;;2.60;2.40;;;27.80;81.50;;;;;;4959006;28;20507;-63
2021/06/03 16:10:31;;;;;;;2.87;2.63;;;27.60;82.30;;;;;;4956753;28;20579;-63
2021/06/03 16:12:58;;;;;;;2.70;2.60;;;27.40;81.10;;;;;;4956728;28;20456;-64
2021/06/03 16:15:26;;;;;;;2.70;2.50;;;27.30;82.60;;;;;;4958271;28;20502;-63
2021/06/03 16:17:53;;;;;;;2.20;2.10;;;27.30;82.80;;;;;;4957386;28;20467;-63
2021/06/03 16:20:21;;;;;;;2.63;2.43;;;27.30;83.00;;;;;;4956794;28;20456;-63
2021/06/03 16:22:49;;;;;;;2.70;2.50;;;27.50;82.60;;;;;;4956413;28;20464;-63
2021/06/03 16:25:16;;;;;;;2.67;2.57;;;27.70;83.50;;;;;;4959231;28;20444;-64
2021/06/03 16:27:45;;;;;;;2.70;2.47;;;27.60;83.10;;;;;;4958160;28;20491;-64
2021/06/03 16:30:19;;;;;;;2.57;2.43;;;27.70;83.90;;;;;;4957059;28;20467;-63
2021/06/03 16:32:46;;;;;;;3.03;2.90;;;27.80;84.70;;;;;;4956794;28;20483;-63
2021/06/03 16:35:12;;;;;;;2.83;2.63;;;27.80;85.60;;;;;;4956434;28;20526;-63
2021/06/03 16:37:39;;;;;;;2.50;2.30;;;27.90;85.80;;;;;;4955897;28;20479;-64
2021/06/03 16:40:07;;;;;;;2.40;2.30;;;27.80;84.30;;;;;;4956815;28;20466;-63
2021/06/03 16:42:33;;;;;;;2.20;2.10;;;27.40;82.50;;;;;;4963508;28;20542;-64
2021/06/03 16:44:59;;;;;;;2.60;2.40;;;27.30;84.50;;;;;;4956684;28;20813;-63
2021/06/03 16:47:27;;;;;;;2.40;2.30;;;27.00;84.20;;;;;;4956032;28;20939;-64
2021/06/03 16:49:53;;;;;;;2.00;1.80;;;26.70;84.80;;;;;;4956066;28;20456;-64
2021/06/03 16:52:19;;;;;;;2.17;2.07;;;26.50;84.80;;;;;;4955629;28;20479;-64
2021/06/03 16:54:45;;;;;;;1.77;1.67;;;26.30;85.40;;;;;;4956122;28;20495;-64
2021/06/03 16:57:11;;;;;;;1.73;1.63;;;26.10;86.20;;;;;;4955587;28;20887;-63
2021/06/03 16:59:38;;;;;;;2.20;2.10;;;26.00;86.10;;;;;;4955077;28;21016;-64